sensor_id;sensor_type;location;lat;lon;timestamp;pressure;altitude;pressure_sealevel;temperature;humidity
72798;BME280;61084;55.816;37.036;2022-08-19T00:00:15;100070.38;;;19.81;50.33
72798;BME280;61084;55.816;37.036;2022-08-19T00:02:41;100072.19;;;19.80;50.53
72798;BME280;61084;55.816;37.036;2022-08-19T00:05:07;100072.19;;;19.80;51.48
72798;BME280;61084;55.816;37.036;2022-08-19T00:07:34;100067.81;;;19.79;50.76
72798;BME280;61084;55.816;37.036;2022-08-19T00:09:59;100059.84;;;19.79;50.91
72798;BME280;61084;55.816;37.036;2022-08-19T00:12:26;100065.28;;;19.78;50.92
72798;BME280;61084;55.816;37.036;2022-08-19T00:14:52;100068.81;;;19.78;51.30
72798;BME280;61084;55.816;37.036;2022-08-19T00:17:20;100074.38;;;19.75;51.21
72798;BME280;61084;55.816;37.036;2022-08-19T00:19:46;100080.56;;;19.76;51.45
72798;BME280;61084;55.816;37.036;2022-08-19T00:22:11;100080.31;;;19.79;51.47
72798;BME280;61084;55.816;37.036;2022-08-19T00:24:37;100084.66;;;19.80;51.52
72798;BME280;61084;55.816;37.036;2022-08-19T00:27:04;100085.38;;;19.82;51.28
72798;BME280;61084;55.816;37.036;2022-08-19T00:29:30;100084.44;;;19.83;51.24
72798;BME280;61084;55.816;37.036;2022-08-19T00:31:57;100082.50;;;19.85;51.18
72798;BME280;61084;55.816;37.036;2022-08-19T00:34:25;100077.16;;;19.85;51.13
72798;BME280;61084;55.816;37.036;2022-08-19T00:36:54;100082.50;;;19.85;51.35
72798;BME280;61084;55.816;37.036;2022-08-19T00:39:20;100079.69;;;19.86;51.43
72798;BME280;61084;55.816;37.036;2022-08-19T00:41:47;100080.69;;;19.85;51.58
72798;BME280;61084;55.816;37.036;2022-08-19T00:44:21;100086.00;;;19.85;51.99
72798;BME280;61084;55.816;37.036;2022-08-19T00:46:50;100094.72;;;19.87;51.70
72798;BME280;61084;55.816;37.036;2022-08-19T00:49:37;100096.53;;;19.87;51.83
72798;BME280;61084;55.816;37.036;2022-08-19T00:52:13;100096.41;;;19.88;51.75
72798;BME280;61084;55.816;37.036;2022-08-19T00:54:41;100104.16;;;19.91;51.55
72798;BME280;61084;55.816;37.036;2022-08-19T00:57:09;100101.28;;;19.94;51.52
72798;BME280;61084;55.816;37.036;2022-08-19T00:59:38;100098.47;;;19.96;51.34
72798;BME280;61084;55.816;37.036;2022-08-19T01:02:05;100101.00;;;19.97;51.27
72798;BME280;61084;55.816;37.036;2022-08-19T01:04:31;100100.16;;;19.97;51.33
72798;BME280;61084;55.816;37.036;2022-08-19T01:06:57;100102.00;;;19.96;51.55
72798;BME280;61084;55.816;37.036;2022-08-19T01:09:23;100105.59;;;19.95;51.50
72798;BME280;61084;55.816;37.036;2022-08-19T01:11:50;100094.94;;;19.95;51.46
72798;BME280;61084;55.816;37.036;2022-08-19T01:14:16;100099.44;;;19.95;51.71
72798;BME280;61084;55.816;37.036;2022-08-19T01:16:43;100092.53;;;19.92;51.60
72798;BME280;61084;55.816;37.036;2022-08-19T01:19:26;100095.19;;;19.92;52.08
72798;BME280;61084;55.816;37.036;2022-08-19T01:22:01;100101.50;;;19.91;51.89
72798;BME280;61084;55.816;37.036;2022-08-19T01:24:28;100102.34;;;19.92;51.80
72798;BME280;61084;55.816;37.036;2022-08-19T01:26:54;100110.34;;;19.92;51.50
72798;BME280;61084;55.816;37.036;2022-08-19T01:29:20;100104.88;;;19.93;52.53
72798;BME280;61084;55.816;37.036;2022-08-19T01:31:46;100106.69;;;19.93;51.62
72798;BME280;61084;55.816;37.036;2022-08-19T01:34:11;100121.84;;;19.92;51.59
72798;BME280;61084;55.816;37.036;2022-08-19T01:36:41;100114.69;;;19.93;51.86
72798;BME280;61084;55.816;37.036;2022-08-19T01:39:11;100113.84;;;19.92;51.91
72798;BME280;61084;55.816;37.036;2022-08-19T01:41:37;100119.31;;;19.91;51.72
72798;BME280;61084;55.816;37.036;2022-08-19T01:44:04;100122.09;;;19.89;52.02
72798;BME280;61084;55.816;37.036;2022-08-19T01:46:31;100122.94;;;19.90;51.81
72798;BME280;61084;55.816;37.036;2022-08-19T01:48:57;100128.38;;;19.88;52.04
72798;BME280;61084;55.816;37.036;2022-08-19T01:51:23;100132.03;;;19.87;51.71
72798;BME280;61084;55.816;37.036;2022-08-19T01:53:51;100133.25;;;19.83;52.20
72798;BME280;61084;55.816;37.036;2022-08-19T01:56:18;100143.06;;;19.83;52.09
72798;BME280;61084;55.816;37.036;2022-08-19T01:59:17;100135.28;;;19.80;52.79
72798;BME280;61084;55.816;37.036;2022-08-19T02:01:44;100135.56;;;19.77;52.09
72798;BME280;61084;55.816;37.036;2022-08-19T02:04:10;100136.75;;;19.73;52.22
72798;BME280;61084;55.816;37.036;2022-08-19T02:06:36;100132.53;;;19.70;53.15
72798;BME280;61084;55.816;37.036;2022-08-19T02:09:04;100136.00;;;19.71;52.52
72798;BME280;61084;55.816;37.036;2022-08-19T02:11:32;100141.47;;;19.69;52.54
72798;BME280;61084;55.816;37.036;2022-08-19T02:14:00;100142.47;;;19.68;52.36
72798;BME280;61084;55.816;37.036;2022-08-19T02:16:27;100142.47;;;19.68;52.39
72798;BME280;61084;55.816;37.036;2022-08-19T02:18:53;100144.25;;;19.68;52.25
72798;BME280;61084;55.816;37.036;2022-08-19T02:21:22;100146.06;;;19.67;52.41
72798;BME280;61084;55.816;37.036;2022-08-19T02:23:48;100141.09;;;19.63;52.50
72798;BME280;61084;55.816;37.036;2022-08-19T02:26:15;100140.38;;;19.61;52.45
72798;BME280;61084;55.816;37.036;2022-08-19T02:28:42;100134.31;;;19.59;52.83
72798;BME280;61084;55.816;37.036;2022-08-19T02:31:13;100136.13;;;19.58;52.97
72798;BME280;61084;55.816;37.036;2022-08-19T02:33:40;100130.94;;;19.57;52.66
72798;BME280;61084;55.816;37.036;2022-08-19T02:36:07;100132.00;;;19.54;52.60
72798;BME280;61084;55.816;37.036;2022-08-19T02:38:34;100135.63;;;19.53;52.51
72798;BME280;61084;55.816;37.036;2022-08-19T02:41:25;100133.22;;;19.50;53.76
72798;BME280;61084;55.816;37.036;2022-08-19T02:43:51;100127.03;;;19.49;52.76
72798;BME280;61084;55.816;37.036;2022-08-19T02:46:23;100134.09;;;19.50;52.87
72798;BME280;61084;55.816;37.036;2022-08-19T02:48:52;100127.91;;;19.50;53.25
72798;BME280;61084;55.816;37.036;2022-08-19T02:51:26;100127.78;;;19.51;53.20
72798;BME280;61084;55.816;37.036;2022-08-19T02:53:53;100133.81;;;19.53;52.82
72798;BME280;61084;55.816;37.036;2022-08-19T02:56:19;100125.84;;;19.53;52.65
72798;BME280;61084;55.816;37.036;2022-08-19T02:58:46;100126.81;;;19.52;52.96
72798;BME280;61084;55.816;37.036;2022-08-19T03:01:23;100122.22;;;19.54;52.93
72798;BME280;61084;55.816;37.036;2022-08-19T03:03:49;100127.41;;;19.56;52.72
72798;BME280;61084;55.816;37.036;2022-08-19T03:06:16;100131.88;;;19.55;53.14
72798;BME280;61084;55.816;37.036;2022-08-19T03:08:43;100137.13;;;19.57;54.06
72798;BME280;61084;55.816;37.036;2022-08-19T03:11:24;100139.78;;;19.57;53.69
72798;BME280;61084;55.816;37.036;2022-08-19T03:13:51;100145.94;;;19.58;53.15
72798;BME280;61084;55.816;37.036;2022-08-19T03:16:18;100153.56;;;19.62;53.18
72798;BME280;61084;55.816;37.036;2022-08-19T03:18:44;100158.78;;;19.64;52.71
72798;BME280;61084;55.816;37.036;2022-08-19T03:21:15;100146.31;;;19.64;53.38
72798;BME280;61084;55.816;37.036;2022-08-19T03:23:41;100147.03;;;19.66;52.85
72798;BME280;61084;55.816;37.036;2022-08-19T03:26:07;100155.78;;;19.68;52.92
72798;BME280;61084;55.816;37.036;2022-08-19T03:28:33;100155.78;;;19.68;52.83
72798;BME280;61084;55.816;37.036;2022-08-19T03:31:12;100156.59;;;19.69;53.08
72798;BME280;61084;55.816;37.036;2022-08-19T03:33:40;100162.56;;;19.72;52.54
72798;BME280;61084;55.816;37.036;2022-08-19T03:36:18;100150.91;;;19.73;53.00
72798;BME280;61084;55.816;37.036;2022-08-19T03:38:47;100150.06;;;19.73;52.91
72798;BME280;61084;55.816;37.036;2022-08-19T03:41:17;100154.31;;;19.75;52.56
72798;BME280;61084;55.816;37.036;2022-08-19T03:43:43;100161.22;;;19.78;52.71
72798;BME280;61084;55.816;37.036;2022-08-19T03:46:18;100159.28;;;19.80;52.78
72798;BME280;61084;55.816;37.036;2022-08-19T03:48:46;100167.16;;;19.81;52.61
72798;BME280;61084;55.816;37.036;2022-08-19T03:51:42;100169.56;;;19.84;52.96
72798;BME280;61084;55.816;37.036;2022-08-19T03:54:10;100165.81;;;19.87;52.42
72798;BME280;61084;55.816;37.036;2022-08-19T03:56:38;100157.69;;;19.88;52.14
72798;BME280;61084;55.816;37.036;2022-08-19T03:59:09;100163.88;;;19.89;52.77
72798;BME280;61084;55.816;37.036;2022-08-19T04:01:36;100155.03;;;19.88;52.62
72798;BME280;61084;55.816;37.036;2022-08-19T04:04:02;100161.94;;;19.91;52.71
72798;BME280;61084;55.816;37.036;2022-08-19T04:06:30;100157.47;;;19.91;52.58
72798;BME280;61084;55.816;37.036;2022-08-19T04:08:57;100160.13;;;19.91;52.29
72798;BME280;61084;55.816;37.036;2022-08-19T04:11:30;100161.34;;;19.98;52.75
72798;BME280;61084;55.816;37.036;2022-08-19T04:13:56;100154.06;;;20.00;52.32
72798;BME280;61084;55.816;37.036;2022-08-19T04:16:24;100158.41;;;20.01;52.45
72798;BME280;61084;55.816;37.036;2022-08-19T04:18:54;100163.66;;;20.03;52.44
72798;BME280;61084;55.816;37.036;2022-08-19T04:21:22;100166.91;;;20.06;52.66
72798;BME280;61084;55.816;37.036;2022-08-19T04:23:50;100173.47;;;20.13;52.61
72798;BME280;61084;55.816;37.036;2022-08-19T04:26:20;100166.03;;;20.17;53.52
72798;BME280;61084;55.816;37.036;2022-08-19T04:28:47;100157.91;;;20.18;52.63
72798;BME280;61084;55.816;37.036;2022-08-19T04:31:15;100162.09;;;20.22;52.46
72798;BME280;61084;55.816;37.036;2022-08-19T04:33:41;100164.34;;;20.27;52.17
72798;BME280;61084;55.816;37.036;2022-08-19T04:36:08;100170.31;;;20.31;52.05
72798;BME280;61084;55.816;37.036;2022-08-19T04:38:35;100165.56;;;20.34;52.13
72798;BME280;61084;55.816;37.036;2022-08-19T04:41:02;100175.00;;;20.38;52.09
72798;BME280;61084;55.816;37.036;2022-08-19T04:43:47;100168.34;;;20.44;52.02
72798;BME280;61084;55.816;37.036;2022-08-19T04:46:14;100178.75;;;20.47;52.23
72798;BME280;61084;55.816;37.036;2022-08-19T04:48:40;100170.66;;;20.48;52.19
72798;BME280;61084;55.816;37.036;2022-08-19T04:51:08;100181.75;;;20.53;52.27
72798;BME280;61084;55.816;37.036;2022-08-19T04:53:36;100182.13;;;20.60;52.15
72798;BME280;61084;55.816;37.036;2022-08-19T04:56:13;100187.78;;;20.66;52.52
72798;BME280;61084;55.816;37.036;2022-08-19T04:58:41;100192.75;;;20.71;52.42
72798;BME280;61084;55.816;37.036;2022-08-19T05:01:11;100196.75;;;20.76;51.98
72798;BME280;61084;55.816;37.036;2022-08-19T05:03:37;100198.06;;;20.82;52.25
72798;BME280;61084;55.816;37.036;2022-08-19T05:06:10;100190.28;;;20.90;52.35
72798;BME280;61084;55.816;37.036;2022-08-19T05:08:37;100193.41;;;20.95;51.87
72798;BME280;61084;55.816;37.036;2022-08-19T05:11:28;100180.31;;;21.03;52.48
72798;BME280;61084;55.816;37.036;2022-08-19T05:13:56;100193.03;;;21.11;52.05
72798;BME280;61084;55.816;37.036;2022-08-19T05:16:23;100184.50;;;21.17;51.81
72798;BME280;61084;55.816;37.036;2022-08-19T05:18:49;100183.13;;;21.22;51.88
72798;BME280;61084;55.816;37.036;2022-08-19T05:21:35;100187.09;;;21.28;51.68
72798;BME280;61084;55.816;37.036;2022-08-19T05:24:21;100182.47;;;21.30;51.55
72798;BME280;61084;55.816;37.036;2022-08-19T05:26:48;100179.56;;;21.33;51.52
72798;BME280;61084;55.816;37.036;2022-08-19T05:29:17;100183.53;;;21.38;51.88
72798;BME280;61084;55.816;37.036;2022-08-19T05:31:43;100184.84;;;21.44;51.79
72798;BME280;61084;55.816;37.036;2022-08-19T05:34:10;100190.38;;;21.52;51.66
72798;BME280;61084;55.816;37.036;2022-08-19T05:36:40;100189.59;;;21.61;51.61
72798;BME280;61084;55.816;37.036;2022-08-19T05:39:08;100184.75;;;21.75;51.48
72798;BME280;61084;55.816;37.036;2022-08-19T05:41:34;100187.63;;;21.84;51.10
72798;BME280;61084;55.816;37.036;2022-08-19T05:44:04;100183.44;;;21.91;51.23
72798;BME280;61084;55.816;37.036;2022-08-19T05:46:36;100178.84;;;22.02;51.61
72798;BME280;61084;55.816;37.036;2022-08-19T05:49:04;100180.59;;;22.13;51.01
72798;BME280;61084;55.816;37.036;2022-08-19T05:51:31;100181.44;;;22.23;50.90
72798;BME280;61084;55.816;37.036;2022-08-19T05:53:58;100184.16;;;22.32;50.80
72798;BME280;61084;55.816;37.036;2022-08-19T05:56:24;100193.91;;;22.43;50.79
72798;BME280;61084;55.816;37.036;2022-08-19T05:58:50;100191.81;;;22.46;50.59
72798;BME280;61084;55.816;37.036;2022-08-19T06:01:17;100190.28;;;22.53;50.48
72798;BME280;61084;55.816;37.036;2022-08-19T06:03:44;100191.44;;;22.61;50.31
72798;BME280;61084;55.816;37.036;2022-08-19T06:06:13;100199.63;;;22.69;50.34
72798;BME280;61084;55.816;37.036;2022-08-19T06:08:39;100197.25;;;22.75;50.15
72798;BME280;61084;55.816;37.036;2022-08-19T06:11:17;100197.69;;;22.80;50.25
72798;BME280;61084;55.816;37.036;2022-08-19T06:13:44;100197.41;;;22.83;50.03
72798;BME280;61084;55.816;37.036;2022-08-19T06:16:13;100198.41;;;22.92;50.26
72798;BME280;61084;55.816;37.036;2022-08-19T06:18:46;100198.97;;;22.95;50.15
72798;BME280;61084;55.816;37.036;2022-08-19T06:21:12;100203.19;;;22.98;50.05
72798;BME280;61084;55.816;37.036;2022-08-19T06:23:38;100196.56;;;23.02;50.00
72798;BME280;61084;55.816;37.036;2022-08-19T06:26:04;100202.91;;;23.10;49.74
72798;BME280;61084;55.816;37.036;2022-08-19T06:28:30;100203.50;;;23.14;50.38
72798;BME280;61084;55.816;37.036;2022-08-19T06:30:56;100199.25;;;23.21;49.93
72798;BME280;61084;55.816;37.036;2022-08-19T06:33:21;100205.88;;;23.27;49.46
72798;BME280;61084;55.816;37.036;2022-08-19T06:35:47;100206.91;;;23.35;49.45
72798;BME280;61084;55.816;37.036;2022-08-19T06:38:13;100201.13;;;23.40;49.49
72798;BME280;61084;55.816;37.036;2022-08-19T06:40:38;100207.59;;;23.47;49.41
72798;BME280;61084;55.816;37.036;2022-08-19T06:43:04;100210.81;;;23.50;49.24
72798;BME280;61084;55.816;37.036;2022-08-19T06:45:30;100201.22;;;23.57;49.16
72798;BME280;61084;55.816;37.036;2022-08-19T06:47:56;100206.28;;;23.60;48.83
72798;BME280;61084;55.816;37.036;2022-08-19T06:50:23;100204.03;;;23.65;48.90
72798;BME280;61084;55.816;37.036;2022-08-19T06:52:49;100198.38;;;23.68;48.73
72798;BME280;61084;55.816;37.036;2022-08-19T06:55:15;100206.81;;;23.73;48.96
72798;BME280;61084;55.816;37.036;2022-08-19T06:57:41;100208.91;;;23.79;48.81
72798;BME280;61084;55.816;37.036;2022-08-19T07:00:09;100199.47;;;23.85;48.53
72798;BME280;61084;55.816;37.036;2022-08-19T07:02:43;100209.06;;;23.87;48.50
72798;BME280;61084;55.816;37.036;2022-08-19T07:05:09;100203.38;;;23.90;48.81
72798;BME280;61084;55.816;37.036;2022-08-19T07:07:35;100204.94;;;23.93;48.33
72798;BME280;61084;55.816;37.036;2022-08-19T07:10:01;100204.22;;;24.01;48.58
72798;BME280;61084;55.816;37.036;2022-08-19T07:12:31;100212.56;;;24.07;48.51
72798;BME280;61084;55.816;37.036;2022-08-19T07:14:59;100209.72;;;24.09;48.04
72798;BME280;61084;55.816;37.036;2022-08-19T07:17:25;100210.41;;;24.11;48.56
72798;BME280;61084;55.816;37.036;2022-08-19T07:19:51;100215.50;;;24.14;48.53
72798;BME280;61084;55.816;37.036;2022-08-19T07:22:17;100206.31;;;24.16;48.40
72798;BME280;61084;55.816;37.036;2022-08-19T07:24:43;100214.03;;;24.19;47.91
72798;BME280;61084;55.816;37.036;2022-08-19T07:27:09;100209.09;;;24.24;47.77
72798;BME280;61084;55.816;37.036;2022-08-19T07:29:36;100210.47;;;24.28;47.86
72798;BME280;61084;55.816;37.036;2022-08-19T07:32:03;100218.25;;;24.31;48.10
72798;BME280;61084;55.816;37.036;2022-08-19T07:34:30;100218.63;;;24.36;48.22
72798;BME280;61084;55.816;37.036;2022-08-19T07:36:56;100223.72;;;24.39;47.91
72798;BME280;61084;55.816;37.036;2022-08-19T07:39:28;100215.75;;;24.47;47.96
72798;BME280;61084;55.816;37.036;2022-08-19T07:41:56;100217.97;;;24.52;47.84
72798;BME280;61084;55.816;37.036;2022-08-19T07:44:23;100220.63;;;24.61;47.81
72798;BME280;61084;55.816;37.036;2022-08-19T07:46:53;100220.56;;;24.71;47.65
72798;BME280;61084;55.816;37.036;2022-08-19T07:49:20;100217.84;;;24.81;47.79
72798;BME280;61084;55.816;37.036;2022-08-19T07:51:51;100230.38;;;24.90;47.63
72798;BME280;61084;55.816;37.036;2022-08-19T07:54:19;100224.22;;;24.97;47.49
72798;BME280;61084;55.816;37.036;2022-08-19T07:56:45;100228.84;;;25.05;47.80
72798;BME280;61084;55.816;37.036;2022-08-19T07:59:11;100225.38;;;25.12;47.18
72798;BME280;61084;55.816;37.036;2022-08-19T08:01:37;100222.91;;;25.19;47.60
72798;BME280;61084;55.816;37.036;2022-08-19T08:04:06;100230.91;;;25.28;47.34
72798;BME280;61084;55.816;37.036;2022-08-19T08:06:52;100225.31;;;25.39;46.98
72798;BME280;61084;55.816;37.036;2022-08-19T08:09:40;100222.72;;;25.48;46.88
72798;BME280;61084;55.816;37.036;2022-08-19T08:12:11;100228.31;;;25.54;46.98
72798;BME280;61084;55.816;37.036;2022-08-19T08:17:08;100227.41;;;25.71;46.71
72798;BME280;61084;55.816;37.036;2022-08-19T08:19:34;100229.81;;;25.74;46.66
72798;BME280;61084;55.816;37.036;2022-08-19T08:22:01;100230.72;;;25.83;46.61
72798;BME280;61084;55.816;37.036;2022-08-19T08:24:29;100229.09;;;25.90;45.86
72798;BME280;61084;55.816;37.036;2022-08-19T08:27:00;100229.28;;;25.96;45.74
72798;BME280;61084;55.816;37.036;2022-08-19T08:29:28;100224.41;;;26.00;45.76
72798;BME280;61084;55.816;37.036;2022-08-19T08:31:55;100228.47;;;26.04;46.03
72798;BME280;61084;55.816;37.036;2022-08-19T08:34:21;100222.78;;;26.07;45.85
72798;BME280;61084;55.816;37.036;2022-08-19T08:36:46;100221.78;;;26.08;45.67
72798;BME280;61084;55.816;37.036;2022-08-19T08:39:16;100221.31;;;26.12;45.62
72798;BME280;61084;55.816;37.036;2022-08-19T08:47:10;100222.38;;;26.20;45.36
72798;BME280;61084;55.816;37.036;2022-08-19T08:49:49;100220.00;;;26.16;45.38
72798;BME280;61084;55.816;37.036;2022-08-19T08:52:26;100218.34;;;26.24;45.17
72798;BME280;61084;55.816;37.036;2022-08-19T08:54:57;100210.81;;;26.27;44.59
72798;BME280;61084;55.816;37.036;2022-08-19T08:57:30;100217.72;;;26.30;44.21
72798;BME280;61084;55.816;37.036;2022-08-19T09:00:00;100212.31;;;26.30;43.79
72798;BME280;61084;55.816;37.036;2022-08-19T09:02:29;100217.19;;;26.26;43.31
72798;BME280;61084;55.816;37.036;2022-08-19T09:04:55;100220.56;;;26.28;42.33
72798;BME280;61084;55.816;37.036;2022-08-19T09:07:47;100226.50;;;26.32;42.51
72798;BME280;61084;55.816;37.036;2022-08-19T09:10:37;100227.00;;;26.35;42.34
72798;BME280;61084;55.816;37.036;2022-08-19T09:13:25;100230.38;;;26.37;42.05
72798;BME280;61084;55.816;37.036;2022-08-19T09:16:02;100231.44;;;26.44;42.18
72798;BME280;61084;55.816;37.036;2022-08-19T09:21:05;100238.66;;;26.44;41.61
72798;BME280;61084;55.816;37.036;2022-08-19T09:23:31;100237.81;;;26.43;41.79
72798;BME280;61084;55.816;37.036;2022-08-19T09:25:57;100236.94;;;26.43;40.68
72798;BME280;61084;55.816;37.036;2022-08-19T09:28:22;100236.13;;;26.42;41.33
72798;BME280;61084;55.816;37.036;2022-08-19T09:30:48;100225.38;;;26.50;41.08
72798;BME280;61084;55.816;37.036;2022-08-19T09:33:14;100231.53;;;26.68;41.74
72798;BME280;61084;55.816;37.036;2022-08-19T09:35:41;100227.91;;;26.85;41.63
72798;BME280;61084;55.816;37.036;2022-08-19T09:38:07;100231.28;;;26.96;41.12
72798;BME280;61084;55.816;37.036;2022-08-19T09:40:33;100227.59;;;27.13;41.05
72798;BME280;61084;55.816;37.036;2022-08-19T09:43:17;100230.66;;;27.34;41.25
72798;BME280;61084;55.816;37.036;2022-08-19T09:45:43;100221.25;;;27.54;41.10
72798;BME280;61084;55.816;37.036;2022-08-19T09:48:09;100224.41;;;27.74;40.23
72798;BME280;61084;55.816;37.036;2022-08-19T09:50:35;100230.66;;;27.90;40.86
72798;BME280;61084;55.816;37.036;2022-08-19T09:53:03;100224.09;;;28.01;39.90
72798;BME280;61084;55.816;37.036;2022-08-19T09:55:31;100220.66;;;28.15;39.87
72798;BME280;61084;55.816;37.036;2022-08-19T09:57:57;100227.72;;;28.24;39.50
72798;BME280;61084;55.816;37.036;2022-08-19T10:00:23;100222.66;;;28.29;39.81
72798;BME280;61084;55.816;37.036;2022-08-19T10:02:48;100220.09;;;28.27;39.40
72798;BME280;61084;55.816;37.036;2022-08-19T10:05:14;100222.66;;;28.29;39.26
72798;BME280;61084;55.816;37.036;2022-08-19T10:07:58;100225.84;;;28.32;39.40
72798;BME280;61084;55.816;37.036;2022-08-19T10:10:26;100231.19;;;28.41;39.44
72798;BME280;61084;55.816;37.036;2022-08-19T10:12:51;100217.50;;;28.50;39.49
72798;BME280;61084;55.816;37.036;2022-08-19T10:15:17;100219.19;;;28.59;39.21
72798;BME280;61084;55.816;37.036;2022-08-19T10:17:46;100226.03;;;28.70;38.79
72798;BME280;61084;55.816;37.036;2022-08-19T10:20:12;100219.91;;;28.76;38.37
72798;BME280;61084;55.816;37.036;2022-08-19T10:22:38;100230.34;;;28.87;38.50
72798;BME280;61084;55.816;37.036;2022-08-19T10:25:05;100226.22;;;28.99;38.54
72798;BME280;61084;55.816;37.036;2022-08-19T10:27:31;100227.16;;;29.06;37.71
72798;BME280;61084;55.816;37.036;2022-08-19T10:29:57;100232.69;;;29.13;37.55
72798;BME280;61084;55.816;37.036;2022-08-19T10:32:23;100227.13;;;29.14;37.00
72798;BME280;61084;55.816;37.036;2022-08-19T10:34:50;100231.00;;;29.20;37.61
72798;BME280;61084;55.816;37.036;2022-08-19T10:37:17;100228.59;;;29.25;36.17
72798;BME280;61084;55.816;37.036;2022-08-19T10:39:45;100235.66;;;29.34;35.97
72798;BME280;61084;55.816;37.036;2022-08-19T10:42:13;100232.41;;;29.38;36.08
72798;BME280;61084;55.816;37.036;2022-08-19T10:44:39;100240.25;;;29.48;35.61
72798;BME280;61084;55.816;37.036;2022-08-19T10:47:05;100235.25;;;29.59;36.60
72798;BME280;61084;55.816;37.036;2022-08-19T10:49:31;100239.19;;;29.71;35.69
72798;BME280;61084;55.816;37.036;2022-08-19T10:51:57;100238.03;;;29.74;35.89
72798;BME280;61084;55.816;37.036;2022-08-19T10:54:42;100240.38;;;29.77;35.23
72798;BME280;61084;55.816;37.036;2022-08-19T10:57:30;100237.66;;;29.77;34.41
72798;BME280;61084;55.816;37.036;2022-08-19T10:59:56;100240.66;;;29.82;34.53
72798;BME280;61084;55.816;37.036;2022-08-19T11:02:22;100243.94;;;29.92;34.62
72798;BME280;61084;55.816;37.036;2022-08-19T11:04:48;100233.78;;;29.94;33.57
72798;BME280;61084;55.816;37.036;2022-08-19T11:07:15;100241.16;;;30.00;33.70
72798;BME280;61084;55.816;37.036;2022-08-19T11:09:42;100235.63;;;30.08;33.75
72798;BME280;61084;55.816;37.036;2022-08-19T11:12:09;100233.03;;;30.15;32.97
72798;BME280;61084;55.816;37.036;2022-08-19T11:14:36;100224.09;;;30.14;33.23
72798;BME280;61084;55.816;37.036;2022-08-19T11:17:03;100230.31;;;30.15;33.78
72798;BME280;61084;55.816;37.036;2022-08-19T11:19:30;100239.38;;;30.22;33.42
72798;BME280;61084;55.816;37.036;2022-08-19T11:21:56;100239.88;;;30.25;33.41
72798;BME280;61084;55.816;37.036;2022-08-19T11:24:24;100241.44;;;30.20;32.20
72798;BME280;61084;55.816;37.036;2022-08-19T11:26:52;100228.25;;;30.17;32.53
72798;BME280;61084;55.816;37.036;2022-08-19T11:29:21;100235.72;;;30.15;30.40
72798;BME280;61084;55.816;37.036;2022-08-19T11:31:48;100235.28;;;30.11;31.89
72798;BME280;61084;55.816;37.036;2022-08-19T11:34:17;100233.78;;;30.09;32.23
72798;BME280;61084;55.816;37.036;2022-08-19T11:37:03;100237.69;;;30.06;32.08
72798;BME280;61084;55.816;37.036;2022-08-19T11:39:30;100222.75;;;30.10;31.95
72798;BME280;61084;55.816;37.036;2022-08-19T11:42:00;100230.06;;;30.10;31.33
72798;BME280;61084;55.816;37.036;2022-08-19T11:44:28;100221.44;;;30.06;32.05
72798;BME280;61084;55.816;37.036;2022-08-19T11:46:55;100229.41;;;30.08;31.94
72798;BME280;61084;55.816;37.036;2022-08-19T11:49:21;100227.50;;;30.08;31.58
72798;BME280;61084;55.816;37.036;2022-08-19T11:51:48;100227.06;;;30.05;31.19
72798;BME280;61084;55.816;37.036;2022-08-19T11:54:16;100230.50;;;29.99;30.92
72798;BME280;61084;55.816;37.036;2022-08-19T11:56:44;100234.97;;;29.92;30.21
72798;BME280;61084;55.816;37.036;2022-08-19T11:59:11;100233.97;;;29.93;30.65
72798;BME280;61084;55.816;37.036;2022-08-19T12:01:37;100247.66;;;29.91;30.75
72798;BME280;61084;55.816;37.036;2022-08-19T12:04:03;100239.75;;;29.90;30.07
72798;BME280;61084;55.816;37.036;2022-08-19T12:06:32;100238.53;;;29.92;30.16
72798;BME280;61084;55.816;37.036;2022-08-19T12:09:04;100240.31;;;30.00;28.90
72798;BME280;61084;55.816;37.036;2022-08-19T12:11:30;100239.50;;;30.14;29.02
72798;BME280;61084;55.816;37.036;2022-08-19T12:13:56;100235.28;;;30.26;29.10
72798;BME280;61084;55.816;37.036;2022-08-19T12:16:24;100237.34;;;30.24;27.65
72798;BME280;61084;55.816;37.036;2022-08-19T12:18:50;100249.38;;;30.21;28.69
72798;BME280;61084;55.816;37.036;2022-08-19T12:21:20;100235.56;;;30.16;28.25
72798;BME280;61084;55.816;37.036;2022-08-19T12:23:48;100232.31;;;30.21;28.01
72798;BME280;61084;55.816;37.036;2022-08-19T12:26:15;100232.56;;;30.26;28.87
72798;BME280;61084;55.816;37.036;2022-08-19T12:28:42;100235.59;;;30.31;28.92
72798;BME280;61084;55.816;37.036;2022-08-19T12:31:08;100229.63;;;30.35;28.15
72798;BME280;61084;55.816;37.036;2022-08-19T12:33:34;100233.34;;;30.34;27.91
72798;BME280;61084;55.816;37.036;2022-08-19T12:36:02;100229.72;;;30.42;28.07
72798;BME280;61084;55.816;37.036;2022-08-19T12:38:29;100219.03;;;30.55;28.67
72798;BME280;61084;55.816;37.036;2022-08-19T12:40:55;100221.75;;;30.55;28.34
72798;BME280;61084;55.816;37.036;2022-08-19T12:43:21;100213.63;;;30.55;28.47
72798;BME280;61084;55.816;37.036;2022-08-19T12:45:47;100212.13;;;30.52;27.61
72798;BME280;61084;55.816;37.036;2022-08-19T12:48:13;100214.53;;;30.62;27.90
72798;BME280;61084;55.816;37.036;2022-08-19T12:50:41;100206.94;;;30.72;28.61
72798;BME280;61084;55.816;37.036;2022-08-19T12:53:07;100213.44;;;30.78;28.10
72798;BME280;61084;55.816;37.036;2022-08-19T12:55:33;100209.34;;;30.82;28.37
72798;BME280;61084;55.816;37.036;2022-08-19T12:57:59;100210.47;;;30.87;27.93